createdAt,value
2019-04-10T00:02:15.406Z,88.00
2019-04-10T00:06:52.177Z,87.60
2019-04-10T00:11:29.018Z,87.70
2019-04-10T00:16:05.607Z,87.90
2019-04-10T00:20:41.462Z,88.30
2019-04-10T00:25:17.216Z,88.70
2019-04-10T00:29:53.053Z,89.40
2019-04-10T00:34:29.670Z,90.00
2019-04-10T00:39:08.670Z,89.50
2019-04-10T00:43:44.469Z,88.50
2019-04-10T00:48:20.262Z,87.80
2019-04-10T00:52:56.748Z,87.20
2019-04-10T00:57:32.565Z,87.60
2019-04-10T01:02:08.593Z,87.60
2019-04-10T01:06:44.409Z,88.10
2019-04-10T01:11:21.065Z,88.40
2019-04-10T01:15:56.926Z,87.90
2019-04-10T01:20:33.369Z,88.50
2019-04-10T01:25:10.278Z,88.70
2019-04-10T01:29:46.168Z,89.10
2019-04-10T01:34:22.186Z,89.20
2019-04-10T01:38:58.033Z,89.80
2019-04-10T01:43:33.804Z,89.50
2019-04-10T01:48:10.045Z,88.60
2019-04-10T01:52:47.063Z,88.90
2019-04-10T01:57:24.038Z,90.40
2019-04-10T02:02:18.818Z,90.50
2019-04-10T02:06:54.576Z,90.40
2019-04-10T02:11:30.908Z,90.70
2019-04-10T02:16:06.788Z,90.50
2019-04-10T02:20:43.134Z,89.90
2019-04-10T02:25:19.922Z,89.00
2019-04-10T02:29:55.836Z,89.30
2019-04-10T02:34:32.733Z,90.30
2019-04-10T02:39:23.038Z,90.90
2019-04-10T02:43:47.334Z,91.00
2019-04-10T02:48:23.491Z,91.20
2019-04-10T02:53:01.202Z,91.80
2019-04-10T02:57:38.593Z,92.00
2019-04-10T03:02:16.073Z,92.10
2019-04-10T03:06:53.364Z,92.20
2019-04-10T03:11:31.097Z,91.80
2019-04-10T03:16:07.479Z,91.50
2019-04-10T03:20:44.642Z,92.30
2019-04-10T03:25:21.231Z,92.70
2019-04-10T03:29:57.124Z,93.00
2019-04-10T03:34:37.778Z,92.80
2019-04-10T03:39:10.774Z,92.80
2019-04-10T03:43:46.656Z,92.90
2019-04-10T03:48:23.080Z,93.10
2019-04-10T03:53:00.081Z,92.80
2019-04-10T03:57:36.457Z,92.80
2019-04-10T04:02:13.625Z,93.00
2019-04-10T04:06:50.240Z,93.20
2019-04-10T04:11:26.165Z,93.00
2019-04-10T04:16:02.245Z,93.10
2019-04-10T04:20:39.108Z,93.10
2019-04-10T04:25:15.017Z,92.90
2019-04-10T04:29:51.876Z,93.00
2019-04-10T04:34:27.779Z,92.70
2019-04-10T04:39:17.995Z,93.10
2019-04-10T04:43:44.461Z,93.20
2019-04-10T04:48:19.620Z,93.60
2019-04-10T04:52:55.433Z,93.50
2019-04-10T04:57:33.817Z,92.90
2019-04-10T05:02:08.666Z,93.10
2019-04-10T05:06:44.475Z,93.70
2019-04-10T05:11:20.496Z,93.90
2019-04-10T05:15:57.333Z,94.10
2019-04-10T05:20:44.134Z,94.40
2019-04-10T05:25:11.118Z,93.80
2019-04-10T05:29:47.184Z,93.90
2019-04-10T05:34:23.041Z,94.20
2019-04-10T05:38:59.984Z,94.00
2019-04-10T05:43:36.236Z,93.50
2019-04-10T05:48:12.067Z,94.00
2019-04-10T05:52:47.910Z,93.80
2019-04-10T05:57:24.587Z,93.70
2019-04-10T06:02:01.079Z,94.20
2019-04-10T06:06:36.877Z,93.90
2019-04-10T06:11:13.665Z,94.10
2019-04-10T06:15:50.711Z,93.80
2019-04-10T06:20:26.625Z,93.40
2019-04-10T06:25:03.967Z,92.90
2019-04-10T06:29:39.872Z,93.20
2019-04-10T06:34:17.577Z,93.20
2019-04-10T06:38:53.155Z,93.40
2019-04-10T06:43:28.958Z,93.20
2019-04-10T06:48:04.790Z,92.90
2019-04-10T06:52:40.992Z,93.00
2019-04-10T06:57:16.885Z,92.90
2019-04-10T07:01:56.095Z,93.10
2019-04-10T07:06:45.192Z,93.00
2019-04-10T07:11:10.246Z,93.00
2019-04-10T07:15:46.625Z,92.60
2019-04-10T07:20:22.701Z,92.90
2019-04-10T07:24:58.506Z,92.10
2019-04-10T07:29:34.318Z,92.00
2019-04-10T07:34:10.969Z,92.00
2019-04-10T07:38:46.932Z,91.30
2019-04-10T07:43:26.150Z,91.20
2019-04-10T07:48:00.388Z,91.50
2019-04-10T07:52:37.179Z,91.30
2019-04-10T07:57:16.018Z,90.80
2019-04-10T08:01:49.496Z,91.10
2019-04-10T08:06:25.682Z,90.40
2019-04-10T08:11:01.656Z,90.50
2019-04-10T08:15:37.905Z,90.20
2019-04-10T08:20:13.788Z,90.30
2019-04-10T08:24:49.557Z,90.60
2019-04-10T08:29:26.022Z,90.90
2019-04-10T08:34:01.885Z,90.90
2019-04-10T08:38:38.123Z,91.20
2019-04-10T08:43:13.960Z,91.10
2019-04-10T08:47:50.716Z,92.00
2019-04-10T08:52:26.607Z,91.30
2019-04-10T08:57:03.280Z,91.20
2019-04-10T09:01:39.698Z,90.90
2019-04-10T09:06:17.426Z,91.20
2019-04-10T09:10:54.466Z,91.30
2019-04-10T09:15:30.329Z,90.90
2019-04-10T09:20:06.690Z,91.00
2019-04-10T09:24:42.543Z,91.40
2019-04-10T09:29:18.380Z,90.80
2019-04-10T09:33:54.153Z,90.30
2019-04-10T09:38:30.629Z,91.80
2019-04-10T09:43:07.344Z,90.50
2019-04-10T09:47:43.867Z,90.70
2019-04-10T09:52:19.786Z,90.30
2019-04-10T09:56:55.565Z,91.10
2019-04-10T10:01:31.447Z,91.10
2019-04-10T10:06:07.312Z,90.00
2019-04-10T10:10:43.107Z,90.00
2019-04-10T10:15:19.173Z,91.10
2019-04-10T10:19:55.343Z,90.60
2019-04-10T10:24:31.210Z,90.50
2019-04-10T10:29:06.997Z,90.50
2019-04-10T10:33:42.762Z,90.50
2019-04-10T10:38:19.021Z,90.90
2019-04-10T10:42:56.066Z,90.30
2019-04-10T10:47:32.542Z,90.50
2019-04-10T10:52:09.038Z,90.10
2019-04-10T10:56:44.923Z,90.30
2019-04-10T11:01:20.689Z,90.10
2019-04-10T11:05:56.480Z,90.00
2019-04-10T11:10:32.265Z,89.70
2019-04-10T11:15:08.181Z,89.40
2019-04-10T11:19:45.568Z,89.90
2019-04-10T11:24:22.743Z,89.50
2019-04-10T11:28:58.593Z,89.20
2019-04-10T11:33:34.802Z,89.90
2019-04-10T11:38:10.961Z,90.30
2019-04-10T11:42:47.106Z,89.80
2019-04-10T11:47:24.839Z,88.80
2019-04-10T11:52:01.839Z,88.30
2019-04-10T11:56:38.516Z,87.80
2019-04-10T12:01:14.697Z,83.60
2019-04-10T12:05:51.937Z,83.30
2019-04-10T12:15:06.757Z,85.80
2019-04-10T12:19:42.537Z,84.60
2019-04-10T12:24:18.349Z,85.70
2019-04-10T12:28:54.201Z,87.70
2019-04-10T12:33:29.986Z,87.20
2019-04-10T12:38:09.725Z,87.30
2019-04-10T12:42:44.142Z,87.10
2019-04-10T12:47:20.013Z,86.40
2019-04-10T12:51:56.316Z,87.00
2019-04-10T12:56:32.455Z,86.70
2019-04-10T13:01:08.772Z,87.60
2019-04-10T13:05:45.233Z,89.80
2019-04-10T13:10:21.077Z,90.10
2019-04-10T13:14:57.137Z,89.30
2019-04-10T13:19:34.168Z,90.10
2019-04-10T13:24:11.107Z,90.00
2019-04-10T13:28:47.686Z,88.10
2019-04-10T13:33:24.596Z,88.60
2019-04-10T13:38:01.089Z,89.30
2019-04-10T13:42:37.255Z,86.30
2019-04-10T13:47:13.392Z,87.00
2019-04-10T13:51:50.165Z,85.20
2019-04-10T13:56:26.012Z,84.10
2019-04-10T14:01:03.018Z,79.30
2019-04-10T14:05:39.117Z,77.90
2019-04-10T14:10:15.924Z,77.30
2019-04-10T14:14:51.688Z,79.50
2019-04-10T14:19:29.880Z,79.40
2019-04-10T14:24:05.882Z,80.70
2019-04-10T14:28:42.985Z,80.70
2019-04-10T14:33:19.120Z,81.10
2019-04-10T14:37:54.965Z,80.20
2019-04-10T14:42:30.733Z,79.80
2019-04-10T14:47:06.586Z,79.00
2019-04-10T14:51:42.351Z,78.90
2019-04-10T14:56:18.125Z,78.50
2019-04-10T15:00:55.009Z,78.50
2019-04-10T15:05:30.833Z,81.10
2019-04-10T15:10:07.116Z,81.50
2019-04-10T15:14:43.684Z,83.30
2019-04-10T15:19:20.516Z,85.40
2019-04-10T15:23:57.281Z,86.70
2019-04-10T15:28:33.926Z,88.00
2019-04-10T15:33:10.125Z,89.30
2019-04-10T15:37:47.042Z,87.90
2019-04-10T15:42:23.854Z,88.80
2019-04-10T15:47:10.633Z,90.30
2019-04-10T15:51:37.130Z,90.00
2019-04-10T15:56:13.775Z,90.90
2019-04-10T16:00:50.239Z,91.50
2019-04-10T16:05:26.312Z,91.80
2019-04-10T16:10:14.779Z,91.30
2019-04-10T16:14:50.714Z,91.60
2019-04-10T16:19:40.978Z,90.30
2019-04-10T16:24:17.448Z,91.20
2019-04-10T16:28:53.650Z,91.80
2019-04-10T16:33:29.532Z,92.10
2019-04-10T16:38:06.844Z,91.20
2019-04-10T16:42:43.638Z,92.30
2019-04-10T16:47:19.717Z,91.60
2019-04-10T16:51:56.605Z,92.40
2019-04-10T16:56:32.502Z,92.60
2019-04-10T17:01:08.500Z,92.50
2019-04-10T17:05:44.329Z,92.70
2019-04-10T17:10:24.503Z,91.70
2019-04-10T17:14:59.603Z,91.30
2019-04-10T17:19:46.521Z,91.90
2019-04-10T17:24:13.375Z,92.10
2019-04-10T17:28:50.320Z,92.60
2019-04-10T17:33:26.798Z,92.50
2019-04-10T17:38:04.625Z,93.00
2019-04-10T17:42:41.034Z,93.50
2019-04-10T17:47:16.929Z,93.90
2019-04-10T17:51:52.903Z,94.10
2019-04-10T17:56:28.669Z,94.60
2019-04-10T18:01:06.884Z,94.40
2019-04-10T18:05:42.732Z,94.50
2019-04-10T18:10:18.559Z,94.60
2019-04-10T18:14:55.453Z,94.70
2019-04-10T18:19:32.290Z,94.60
2019-04-10T18:24:08.251Z,94.50
2019-04-10T18:28:44.114Z,94.50
2019-04-10T18:33:20.413Z,94.20
2019-04-10T18:37:58.338Z,94.30
2019-04-10T18:42:33.748Z,94.10
2019-04-10T18:47:09.548Z,93.90
2019-04-10T18:51:45.940Z,93.90
2019-04-10T18:56:21.824Z,94.00
2019-04-10T19:01:16.121Z,93.90
2019-04-10T19:05:56.300Z,93.90
2019-04-10T19:10:32.615Z,93.90
2019-04-10T19:15:08.687Z,94.00
2019-04-10T19:19:45.405Z,93.80
2019-04-10T19:24:23.082Z,93.70
2019-04-10T19:28:59.217Z,93.40
2019-04-10T19:33:35.274Z,93.40
2019-04-10T19:38:11.466Z,93.30
2019-04-10T19:42:49.364Z,93.30
2019-04-10T19:47:28.444Z,93.50
2019-04-10T19:52:15.996Z,93.40
2019-04-10T19:56:52.990Z,93.50
2019-04-10T20:01:31.219Z,93.40
2019-04-10T20:06:07.800Z,93.40
2019-04-10T20:10:44.196Z,93.60
2019-04-10T20:15:20.548Z,93.80
2019-04-10T20:19:57.327Z,94.10
2019-04-10T20:24:34.689Z,94.20
2019-04-10T20:29:12.874Z,94.50
2019-04-10T20:33:49.981Z,94.40
2019-04-10T20:38:27.341Z,94.70
2019-04-10T20:43:04.832Z,95.00
2019-04-10T20:47:42.102Z,94.60
2019-04-10T20:52:20.014Z,94.40
2019-04-10T20:56:57.204Z,94.50
2019-04-10T21:01:35.108Z,94.30
2019-04-10T21:06:11.433Z,94.40
2019-04-10T21:10:49.057Z,94.80
2019-04-10T21:15:25.794Z,95.00
2019-04-10T21:20:02.637Z,95.10
2019-04-10T21:24:38.496Z,95.60
2019-04-10T21:34:21.934Z,95.10
2019-04-10T21:38:57.848Z,94.90
2019-04-10T21:43:34.584Z,94.70
2019-04-10T21:48:10.552Z,94.70
2019-04-10T21:52:47.508Z,94.60
2019-04-10T21:57:24.262Z,94.70
2019-04-10T22:02:00.590Z,94.70
2019-04-10T22:06:59.285Z,94.20
2019-04-10T22:11:35.209Z,94.40
2019-04-10T22:16:13.552Z,94.30
2019-04-10T22:20:50.085Z,94.50
2019-04-10T22:25:25.912Z,94.60
2019-04-10T22:30:02.822Z,94.50
2019-04-10T22:34:38.737Z,94.60
2019-04-10T22:39:16.708Z,94.60
2019-04-10T22:43:52.796Z,94.70
2019-04-10T22:48:28.774Z,94.60
2019-04-10T22:53:04.750Z,94.80
2019-04-10T22:57:41.558Z,95.00
2019-04-10T23:02:17.572Z,95.10
2019-04-10T23:06:53.542Z,95.40
2019-04-10T23:11:35.303Z,95.50
2019-04-10T23:16:09.324Z,95.70
2019-04-10T23:20:45.120Z,95.70
2019-04-10T23:25:20.986Z,95.60
2019-04-10T23:29:56.980Z,95.80
2019-04-10T23:34:32.845Z,96.10
2019-04-10T23:39:10.018Z,95.70
2019-04-10T23:43:46.135Z,95.50
2019-04-10T23:48:22.512Z,95.70
2019-04-10T23:52:58.419Z,95.00
2019-04-10T23:57:34.281Z,94.90
